Time;durP1;ratioP1;P1;durP2;ratioP2;P2;SDS_P1;SDS_P2;PMS_P1;PMS_P2;Temp;Humidity;BMP_temperature;BMP_pressure;BME280_temperature;BME280_humidity;BME280_pressure;Samples;Min_cycle;Max_cycle;Signal;HPM_P1;HPM_P2
2022/05/09 00:01:52;;;;;;;5.47;4.03;;;;;;;8.74;66.50;101499.94;5061222;28;20480;-64
2022/05/09 00:04:20;;;;;;;11.93;4.90;;;;;;;8.63;66.97;101496.16;5062540;28;20484;-64
2022/05/09 00:06:47;;;;;;;8.20;4.20;;;;;;;8.62;67.06;101507.75;5061846;28;20477;-64
2022/05/09 00:09:16;;;;;;;9.50;3.97;;;;;;;8.63;67.28;101504.16;5062523;28;20508;-64
2022/05/09 00:11:42;;;;;;;7.90;4.20;;;;;;;8.66;67.04;101498.63;5061764;28;20473;-64
2022/05/09 00:14:09;;;;;;;11.30;4.57;;;;;;;8.64;67.04;101495.19;5061823;28;20449;-65
2022/05/09 00:16:36;;;;;;;8.47;3.97;;;;;;;8.60;67.30;101493.66;5061824;28;20488;-65
2022/05/09 00:19:05;;;;;;;14.70;6.60;;;;;;;8.59;67.34;101504.44;5061598;28;20448;-65
2022/05/09 00:21:34;;;;;;;7.97;3.60;;;;;;;8.54;67.50;101499.41;5043644;28;21076;-64
2022/05/09 00:24:00;;;;;;;6.83;4.00;;;;;;;8.59;67.39;101499.09;5062186;28;20488;-64
2022/05/09 00:26:31;;;;;;;8.37;4.53;;;;;;;8.55;67.45;101498.44;5061663;28;20504;-65
2022/05/09 00:28:58;;;;;;;5.70;3.53;;;;;;;8.55;67.67;101498.44;5062448;28;20456;-64
2022/05/09 00:31:25;;;;;;;10.00;4.90;;;;;;;8.53;67.48;101497.69;5060698;28;20571;-65
2022/05/09 00:33:52;;;;;;;10.00;4.77;;;;;;;8.45;67.91;101497.28;5061625;28;20449;-65
2022/05/09 00:36:19;;;;;;;11.33;4.60;;;;;;;8.44;67.68;101490.28;5061611;28;20497;-65
2022/05/09 00:38:47;;;;;;;12.77;4.70;;;;;;;8.39;67.95;101492.34;5061728;28;20875;-65
2022/05/09 00:43:59;;;;;;;7.33;4.10;;;;;;;8.41;67.96;101488.59;5061342;28;20921;-65
2022/05/09 00:46:28;;;;;;;8.33;4.30;;;;;;;8.34;68.37;101489.94;5061011;28;20472;-65
2022/05/09 00:48:55;;;;;;;7.93;4.17;;;;;;;8.28;69.04;101496.53;5061083;28;20898;-64
2022/05/09 00:51:24;;;;;;;9.77;4.13;;;;;;;8.25;69.12;101491.38;5060784;28;20862;-65
2022/05/09 00:53:53;;;;;;;11.13;4.43;;;;;;;8.28;68.91;101490.31;5062029;28;20723;-64
2022/05/09 00:56:23;;;;;;;10.10;4.23;;;;;;;8.22;69.15;101485.38;5060707;28;20491;-64
2022/05/09 00:58:52;;;;;;;7.30;4.23;;;;;;;8.17;69.28;101488.31;5061324;28;20794;-64
2022/05/09 01:01:20;;;;;;;7.40;3.87;;;;;;;8.09;69.46;101485.28;5061257;28;20587;-64
2022/05/09 01:03:49;;;;;;;9.33;3.90;;;;;;;8.14;69.46;101483.19;5061372;28;20484;-64
2022/05/09 01:06:16;;;;;;;10.73;4.67;;;;;;;8.06;69.75;101485.47;5060879;28;20548;-64
2022/05/09 01:08:43;;;;;;;6.20;4.00;;;;;;;8.01;70.24;101484.91;5060784;28;20459;-65
2022/05/09 01:11:16;;;;;;;14.17;4.87;;;;;;;8.03;69.79;101478.50;5061251;28;20488;-64
2022/05/09 01:13:46;;;;;;;11.83;4.97;;;;;;;7.99;69.99;101497.47;5060690;28;20473;-64
2022/05/09 01:16:16;;;;;;;6.83;4.10;;;;;;;7.97;70.26;101480.69;5060957;28;20483;-64
2022/05/09 01:18:44;;;;;;;10.17;4.00;;;;;;;7.91;69.99;101482.78;5059728;28;21071;-64
2022/05/09 01:21:31;;;;;;;6.57;3.97;;;;;;;7.83;70.36;101474.41;5061029;28;20473;-64
2022/05/09 01:23:58;;;;;;;9.47;4.07;;;;;;;7.81;70.64;101473.66;5060871;28;20485;-64
2022/05/09 01:26:25;;;;;;;8.30;4.83;;;;;;;7.73;70.80;101479.44;5060324;28;20480;-63
2022/05/09 01:28:51;;;;;;;10.23;4.20;;;;;;;7.66;71.12;101482.56;5061214;28;20456;-64
2022/05/09 01:31:19;;;;;;;9.73;4.30;;;;;;;7.58;71.40;101487.47;5060217;28;20485;-65
2022/05/09 01:33:51;;;;;;;7.67;3.90;;;;;;;7.56;71.71;101482.25;5060423;28;20471;-64
2022/05/09 01:36:21;;;;;;;9.27;5.03;;;;;;;7.59;71.67;101478.56;5060213;28;20493;-64
2022/05/09 01:38:53;;;;;;;10.60;5.27;;;;;;;7.59;71.92;101478.56;5061114;28;20587;-64
2022/05/09 01:41:19;;;;;;;8.30;4.40;;;;;;;7.54;71.69;101473.50;5060156;28;20985;-64
2022/05/09 01:43:49;;;;;;;8.87;4.00;;;;;;;7.50;71.67;101464.84;5059787;28;20488;-65
2022/05/09 01:46:17;;;;;;;9.17;5.07;;;;;;;7.49;71.92;101471.09;5048536;28;20552;-65
2022/05/09 01:51:29;;;;;;;13.87;5.03;;;;;;;7.42;72.00;101468.91;5040514;28;21018;-65
2022/05/09 01:53:57;;;;;;;10.43;4.10;;;;;;;7.38;72.31;101476.22;5047220;28;20449;-65
2022/05/09 01:56:27;;;;;;;7.93;4.73;;;;;;;7.34;72.46;101474.66;5060074;28;20477;-65
2022/05/09 01:58:55;;;;;;;9.93;5.30;;;;;;;7.34;72.42;101472.00;5060848;28;20467;-65
2022/05/09 02:01:23;;;;;;;10.60;4.87;;;;;;;7.32;72.31;101473.91;5060150;28;20484;-65
2022/05/09 02:03:52;;;;;;;14.97;4.73;;;;;;;7.24;72.83;101477.00;5060443;28;20599;-65
2022/05/09 02:06:20;;;;;;;9.87;5.20;;;;;;;7.24;73.05;101470.81;5059773;28;20476;-65
2022/05/09 02:08:47;;;;;;;8.83;4.30;;;;;;;7.20;73.33;101471.94;5060924;28;20447;-65
2022/05/09 02:11:16;;;;;;;8.63;5.00;;;;;;;7.15;73.48;101462.44;5060742;28;20473;-65
2022/05/09 02:13:43;;;;;;;9.73;4.90;;;;;;;7.12;73.56;101467.94;5060223;28;20448;-64
2022/05/09 02:16:09;;;;;;;9.23;5.50;;;;;;;7.10;73.41;101468.94;5060480;28;20480;-64
2022/05/09 02:18:36;;;;;;;10.40;5.47;;;;;;;7.05;73.71;101465.69;5059820;28;20518;-64
2022/05/09 02:21:04;;;;;;;9.17;5.70;;;;;;;7.09;74.00;101470.75;5060156;28;20565;-64
2022/05/09 02:23:31;;;;;;;12.57;5.20;;;;;;;6.98;74.21;101468.72;5059334;28;20456;-64
2022/05/09 02:25:58;;;;;;;13.40;6.60;;;;;;;6.91;74.19;101475.34;5061458;28;20472;-64
2022/05/09 02:28:26;;;;;;;8.50;4.97;;;;;;;6.94;74.24;101467.19;5063900;28;20498;-64
2022/05/09 02:30:53;;;;;;;9.80;5.63;;;;;;;6.93;74.35;101469.94;5063565;28;20485;-64
2022/05/09 02:33:20;;;;;;;15.57;5.90;;;;;;;6.99;74.38;101474.88;5062601;28;20460;-64
2022/05/09 02:35:47;;;;;;;11.90;5.60;;;;;;;7.00;74.24;101463.31;5063083;28;20476;-64
2022/05/09 02:38:15;;;;;;;10.87;5.07;;;;;;;6.95;74.11;101466.22;5063409;28;20476;-64
2022/05/09 02:40:42;;;;;;;11.73;5.60;;;;;;;7.02;74.21;101471.22;5063370;28;20477;-64
2022/05/09 02:43:09;;;;;;;12.20;5.83;;;;;;;7.04;74.14;101464.84;5063333;28;20494;-65
2022/05/09 02:45:38;;;;;;;10.13;5.43;;;;;;;7.03;74.33;101463.16;5062869;28;20465;-64
2022/05/09 02:48:06;;;;;;;12.90;5.10;;;;;;;6.98;74.36;101462.56;5063333;28;20464;-64
2022/05/09 02:50:33;;;;;;;12.40;5.53;;;;;;;6.99;74.43;101466.91;5063016;28;20590;-64
2022/05/09 02:52:59;;;;;;;8.70;4.87;;;;;;;6.95;74.42;101466.22;5064045;28;20455;-64
2022/05/09 02:55:26;;;;;;;10.03;4.87;;;;;;;6.98;74.18;101466.06;5063366;28;20578;-64
2022/05/09 02:57:53;;;;;;;8.40;5.70;;;;;;;6.91;74.03;101463.81;5063152;28;20445;-65
2022/05/09 03:00:23;;;;;;;11.10;5.47;;;;;;;6.88;74.21;101464.03;5063246;28;20468;-65
2022/05/09 03:05:37;;;;;;;8.50;6.20;;;;;;;6.90;74.44;101467.44;5063345;28;20486;-65
2022/05/09 03:08:05;;;;;;;11.77;5.37;;;;;;;6.89;74.49;101460.41;5063977;28;20498;-66
2022/05/09 03:10:32;;;;;;;8.90;5.30;;;;;;;6.82;74.56;101465.19;5062913;28;20469;-66
2022/05/09 03:12:59;;;;;;;9.20;6.03;;;;;;;6.75;74.95;101463.84;5063291;28;20495;-66
2022/05/09 03:15:26;;;;;;;7.37;4.40;;;;;;;6.77;75.11;101459.28;5062182;28;21426;-66
2022/05/09 03:17:54;;;;;;;12.30;5.57;;;;;;;6.71;75.07;101452.53;5062628;28;20551;-65
2022/05/09 03:20:21;;;;;;;14.23;5.67;;;;;;;6.65;75.24;101455.53;5062328;28;20455;-65
2022/05/09 03:22:49;;;;;;;11.80;5.60;;;;;;;6.58;75.50;101452.38;5063513;28;20441;-65
2022/05/09 03:25:15;;;;;;;10.07;4.70;;;;;;;6.59;75.28;101461.19;5063298;28;20476;-65
2022/05/09 03:27:42;;;;;;;10.87;5.93;;;;;;;6.53;75.52;101453.56;5063114;28;20449;-65
2022/05/09 03:30:10;;;;;;;10.57;5.87;;;;;;;6.51;75.83;101450.13;5062790;28;20467;-65
2022/05/09 03:32:39;;;;;;;10.90;6.30;;;;;;;6.51;75.76;101450.13;5061630;28;20571;-64
2022/05/09 03:35:08;;;;;;;8.07;5.60;;;;;;;6.56;75.82;101448.94;5063640;28;20448;-64
2022/05/09 03:37:35;;;;;;;10.00;5.20;;;;;;;6.58;75.69;101449.72;5061843;28;20460;-64
2022/05/09 03:40:02;;;;;;;13.60;5.20;;;;;;;6.63;75.58;101454.78;5052582;28;20433;-64
2022/05/09 03:42:28;;;;;;;6.60;5.37;;;;;;;6.64;75.25;101451.16;5042538;28;20481;-64
2022/05/09 03:44:55;;;;;;;12.80;5.90;;;;;;;6.65;75.59;101452.00;5042176;28;20548;-64
2022/05/09 03:47:22;;;;;;;6.77;5.17;;;;;;;6.81;74.98;101446.72;5040693;28;20541;-65
2022/05/09 03:49:50;;;;;;;12.73;5.60;;;;;;;6.81;75.00;101441.41;5042073;28;21186;-65
2022/05/09 03:52:18;;;;;;;12.80;5.60;;;;;;;7.04;74.74;101448.03;5042094;28;20489;-65
2022/05/09 03:54:45;;;;;;;16.33;7.10;;;;;;;7.40;73.52;101439.72;5042166;28;20453;-65
2022/05/09 03:57:12;;;;;;;12.03;5.33;;;;;;;7.84;71.96;101436.19;5041116;28;20469;-65
2022/05/09 03:59:38;;;;;;;13.40;6.03;;;;;;;8.23;70.33;101450.66;5042186;28;20912;-65
2022/05/09 04:02:05;;;;;;;12.53;6.00;;;;;;;8.64;68.16;101454.34;5041123;28;20556;-65
2022/05/09 04:04:32;;;;;;;7.80;5.60;;;;;;;9.12;66.38;101451.25;5041959;28;20739;-65
2022/05/09 04:06:58;;;;;;;7.90;5.13;;;;;;;9.53;64.58;101448.47;5040961;28;20500;-65
2022/05/09 04:09:27;;;;;;;9.97;5.17;;;;;;;10.01;62.95;101447.00;5042152;28;20442;-65
2022/05/09 04:11:53;;;;;;;10.57;5.57;;;;;;;10.40;61.06;101445.16;5041027;28;20486;-64
2022/05/09 04:16:49;;;;;;;8.30;5.20;;;;;;;10.77;59.24;101440.69;5040953;28;20461;-64
2022/05/09 04:17:07;;;;;;;7.33;4.23;;;;;;;11.39;57.60;101447.66;5039216;28;20474;-65
2022/05/09 04:19:33;;;;;;;8.70;3.70;;;;;;;11.72;56.59;101446.06;5041846;28;20445;-65
2022/05/09 04:22:02;;;;;;;11.60;5.20;;;;;;;11.97;55.36;101442.34;5042044;28;21010;-63
2022/05/09 04:24:31;;;;;;;10.67;4.50;;;;;;;12.39;54.23;101444.41;5041964;28;20496;-64
2022/05/09 04:26:57;;;;;;;7.40;4.37;;;;;;;12.70;53.12;101445.47;5036008;28;20552;-64
2022/05/09 04:29:24;;;;;;;8.73;4.80;;;;;;;12.88;52.80;101439.56;5040426;28;20446;-63
2022/05/09 04:31:51;;;;;;;12.43;5.50;;;;;;;12.55;52.61;101441.34;5039968;28;20481;-67
2022/05/09 04:34:18;;;;;;;14.13;5.70;;;;;;;12.69;53.00;101440.22;5038178;28;21318;-68
2022/05/09 04:36:45;;;;;;;7.70;4.70;;;;;;;13.24;51.85;101445.56;5033233;28;20473;-66
2022/05/09 04:39:11;;;;;;;8.80;5.10;;;;;;;13.46;51.05;101448.16;5036272;28;20446;-69
2022/05/09 04:41:39;;;;;;;9.83;4.20;;;;;;;13.47;49.96;101446.31;5036759;28;20852;-64
2022/05/09 04:44:06;;;;;;;9.27;4.20;;;;;;;12.81;51.56;101447.25;5040309;28;20453;-66
2022/05/09 04:46:33;;;;;;;11.80;4.17;;;;;;;12.03;53.82;101439.19;5039795;28;20539;-66
2022/05/09 04:49:00;;;;;;;12.03;4.07;;;;;;;11.66;55.72;101443.84;5027963;28;20459;-68
2022/05/09 04:51:27;;;;;;;5.50;4.07;;;;;;;11.65;56.03;101436.78;5030476;28;20520;-67
2022/05/09 04:53:54;;;;;;;5.83;3.73;;;;;;;11.10;57.73;101445.34;5034554;28;20966;-68
2022/05/09 04:56:20;;;;;;;8.63;5.07;;;;;;;11.06;58.44;101446.56;5031305;28;20513;-67
2022/05/09 04:58:49;;;;;;;10.40;5.73;;;;;;;11.78;56.27;101445.56;5040920;28;20912;-66
2022/05/09 05:01:15;;;;;;;7.53;4.63;;;;;;;13.01;53.28;101442.94;5041254;28;20564;-66
2022/05/09 05:03:42;;;;;;;14.40;4.73;;;;;;;13.68;51.43;101449.88;5026734;28;20527;-65
2022/05/09 05:06:09;;;;;;;9.00;3.73;;;;;;;14.26;50.16;101449.31;5040219;28;20485;-69
2022/05/09 05:08:35;;;;;;;6.40;4.30;;;;;;;15.02;47.32;101448.00;5038866;28;20469;-65
2022/05/09 05:11:02;;;;;;;7.10;4.03;;;;;;;14.64;47.69;101453.16;5039503;28;20500;-66
2022/05/09 05:13:29;;;;;;;10.50;4.20;;;;;;;15.10;46.55;101455.38;5040667;28;20461;-66
2022/05/09 05:15:57;;;;;;;6.37;4.70;;;;;;;14.53;47.66;101449.69;5029902;28;20478;-64
2022/05/09 05:18:27;;;;;;;11.73;4.20;;;;;;;14.98;47.44;101447.44;5019893;28;20461;-65
2022/05/09 05:20:54;;;;;;;9.80;4.50;;;;;;;15.58;46.16;101451.81;5032460;28;20509;-66
2022/05/09 05:23:20;;;;;;;7.60;4.50;;;;;;;17.19;42.46;101454.28;5040245;28;20453;-64
2022/05/09 05:25:47;;;;;;;12.30;4.07;;;;;;;17.42;41.67;101454.66;5038510;28;20485;-64
2022/05/09 05:28:15;;;;;;;9.07;4.60;;;;;;;16.70;42.91;101453.72;5039487;28;20927;-64
2022/05/09 05:30:41;;;;;;;10.40;4.50;;;;;;;18.69;39.54;101449.66;5039230;28;20493;-64
2022/05/09 05:33:10;;;;;;;8.60;4.70;;;;;;;17.68;41.21;101453.84;5038429;28;20454;-61
2022/05/09 05:35:36;;;;;;;9.47;4.30;;;;;;;17.64;41.58;101447.91;5028030;28;20537;-62
2022/05/09 05:38:03;;;;;;;9.07;4.80;;;;;;;17.92;40.98;101450.50;5032876;28;20455;-61
2022/05/09 05:40:30;;;;;;;10.20;5.20;;;;;;;17.29;41.92;101448.78;5030005;28;20916;-61
2022/05/09 05:42:56;;;;;;;8.90;4.37;;;;;;;18.74;38.58;101439.19;5037883;28;20446;-62
2022/05/09 05:45:24;;;;;;;13.73;4.60;;;;;;;17.87;40.19;101440.13;5039583;28;21038;-62
2022/05/09 05:47:52;;;;;;;10.80;4.73;;;;;;;17.45;41.48;101432.72;5032545;28;20450;-61
2022/05/09 05:50:23;;;;;;;11.63;4.63;;;;;;;18.29;39.41;101435.78;5029751;28;20469;-65
2022/05/09 05:52:49;;;;;;;9.80;5.17;;;;;;;17.72;40.89;101435.44;5029015;28;20439;-64
2022/05/09 05:55:19;;;;;;;11.37;4.33;;;;;;;19.04;38.08;101432.31;5022771;28;20426;-64
2022/05/09 05:57:45;;;;;;;11.73;4.30;;;;;;;18.73;39.27;101430.22;5060634;28;20452;-65
2022/05/09 06:00:17;;;;;;;9.73;4.57;;;;;;;18.63;38.90;101429.50;5059748;28;20448;-64
2022/05/09 06:02:44;;;;;;;10.00;4.83;;;;;;;19.74;37.26;101431.00;5043237;28;20962;-64
2022/05/09 06:05:12;;;;;;;7.80;4.40;;;;;;;19.42;37.95;101432.69;5043992;28;20481;-64
2022/05/09 06:07:41;;;;;;;7.53;5.00;;;;;;;18.24;40.84;101433.59;5040760;28;20449;-65
2022/05/09 06:10:09;;;;;;;10.10;5.00;;;;;;;17.90;40.90;101430.88;5034101;28;20459;-63
2022/05/09 06:12:36;;;;;;;7.00;4.83;;;;;;;18.75;39.79;101438.19;5035983;28;20447;-64
2022/05/09 06:17:50;;;;;;;10.07;5.10;;;;;;;19.01;39.46;101435.38;5017940;28;20470;-64
2022/05/09 06:20:17;;;;;;;11.20;4.77;;;;;;;18.62;40.86;101431.34;5017177;28;20446;-65
2022/05/09 06:22:45;;;;;;;7.23;4.57;;;;;;;20.72;37.11;101437.97;5024350;28;20458;-64
2022/05/09 06:25:14;;;;;;;10.83;5.40;;;;;;;21.17;35.24;101438.19;5012712;28;20498;-65
2022/05/09 06:27:42;;;;;;;8.90;4.40;;;;;;;19.66;37.81;101429.09;5021846;28;20455;-64
2022/05/09 06:30:10;;;;;;;9.40;4.77;;;;;;;20.87;34.83;101432.63;5022166;28;20458;-64
2022/05/09 06:32:37;;;;;;;10.70;5.57;;;;;;;20.80;34.80;101446.09;5020452;28;20548;-64
2022/05/09 06:35:06;;;;;;;10.27;5.17;;;;;;;22.32;32.76;101429.78;5018744;28;20451;-65
2022/05/09 06:37:33;;;;;;;10.70;5.80;;;;;;;21.47;34.51;101441.88;5042927;28;20468;-64
2022/05/09 06:40:02;;;;;;;8.07;4.50;;;;;;;20.93;35.01;101431.06;5062641;28;20484;-64
2022/05/09 06:42:29;;;;;;;9.40;4.53;;;;;;;21.44;34.12;101436.81;5050034;28;20482;-64
2022/05/09 06:44:55;;;;;;;12.13;5.43;;;;;;;22.81;32.01;101427.44;5043163;28;20512;-65
2022/05/09 06:47:22;;;;;;;9.30;5.20;;;;;;;21.81;33.09;101426.97;5023242;28;21010;-65
2022/05/09 06:49:49;;;;;;;8.17;5.00;;;;;;;22.77;30.97;101424.25;5023768;28;20438;-64
2022/05/09 06:52:16;;;;;;;12.00;5.30;;;;;;;23.24;30.70;101422.88;5005724;28;20903;-64
2022/05/09 06:54:42;;;;;;;9.27;5.07;;;;;;;22.41;32.09;101426.97;5023025;28;20462;-64
2022/05/09 06:57:10;;;;;;;6.47;3.80;;;;;;;21.83;33.17;101424.06;5023189;28;20482;-64
2022/05/09 06:59:37;;;;;;;8.93;4.90;;;;;;;23.02;32.01;101430.22;5022280;28;20478;-64
2022/05/09 07:02:04;;;;;;;7.33;4.60;;;;;;;21.99;32.72;101430.16;5014513;28;20502;-64
2022/05/09 07:04:31;;;;;;;11.47;4.50;;;;;;;21.27;33.72;101433.38;5019520;28;20451;-64
2022/05/09 07:06:58;;;;;;;7.07;4.03;;;;;;;22.99;31.25;101427.03;5022318;28;20490;-65
2022/05/09 07:09:25;;;;;;;6.10;4.40;;;;;;;22.53;31.35;101423.59;5022681;28;20426;-64
2022/05/09 07:11:52;;;;;;;10.03;4.70;;;;;;;22.21;32.33;101422.09;5020633;28;20490;-65
2022/05/09 07:14:20;;;;;;;7.87;3.97;;;;;;;23.29;29.11;101425.88;5021432;28;20466;-64
2022/05/09 07:16:47;;;;;;;7.63;4.00;;;;;;;23.20;29.69;101428.94;5021103;28;20474;-64
2022/05/09 07:19:15;;;;;;;8.57;3.43;;;;;;;22.89;29.77;101430.06;5022649;28;20482;-64
2022/05/09 07:21:42;;;;;;;5.63;3.30;;;;;;;22.29;30.58;101423.88;5021345;28;20490;-63
2022/05/09 07:24:09;;;;;;;4.63;2.90;;;;;;;22.31;30.14;101427.28;5021404;28;20450;-63
2022/05/09 07:26:36;;;;;;;6.73;3.50;;;;;;;22.58;29.41;101428.44;5022494;28;20483;-65
2022/05/09 07:29:03;;;;;;;9.40;3.20;;;;;;;22.85;29.77;101428.78;5023305;28;20861;-64
2022/05/09 07:31:31;;;;;;;7.80;3.37;;;;;;;23.30;28.73;101422.09;5022099;28;20487;-66
2022/05/09 07:33:57;;;;;;;9.20;3.80;;;;;;;23.54;28.56;101417.28;5022379;28;20489;-67
2022/05/09 07:36:24;;;;;;;10.90;3.73;;;;;;;23.07;29.29;101419.59;5021914;28;20486;-65
2022/05/09 07:38:51;;;;;;;5.20;2.97;;;;;;;22.43;30.28;101411.28;5017265;28;20452;-66
2022/05/09 07:41:18;;;;;;;6.73;2.87;;;;;;;22.82;29.85;101419.06;5019958;28;20563;-63
2022/05/09 07:43:45;;;;;;;7.17;3.90;;;;;;;22.48;31.03;101420.59;5022221;28;20447;-65
2022/05/09 07:46:12;;;;;;;10.67;3.70;;;;;;;23.23;29.59;101415.75;5021402;28;20490;-64
2022/05/09 07:48:40;;;;;;;7.10;3.80;;;;;;;23.92;28.23;101419.66;5022253;28;20458;-64
2022/05/09 07:51:07;;;;;;;7.40;3.20;;;;;;;24.09;27.58;101419.34;5020564;28;20482;-64
2022/05/09 07:53:35;;;;;;;8.07;3.17;;;;;;;24.43;27.26;101424.78;5021594;28;20987;-65
2022/05/09 07:56:03;;;;;;;6.77;3.40;;;;;;;24.00;28.38;101424.97;5022412;28;20967;-66
2022/05/09 07:58:30;;;;;;;7.67;3.67;;;;;;;23.50;28.39;101422.28;5022746;28;20447;-62
2022/05/09 08:00:58;;;;;;;6.17;4.07;;;;;;;23.83;28.35;101421.69;5021876;28;20566;-63
2022/05/09 08:03:26;;;;;;;10.07;3.83;;;;;;;24.75;27.61;101421.56;5016598;28;20458;-66
2022/05/09 08:05:56;;;;;;;7.47;3.40;;;;;;;24.73;27.24;101418.19;5016099;28;20474;-64
2022/05/09 08:08:23;;;;;;;5.50;2.97;;;;;;;24.20;28.47;101414.16;5020716;28;20455;-63
2022/05/09 08:10:50;;;;;;;7.03;2.90;;;;;;;25.15;27.49;101407.94;5022015;28;20485;-66
2022/05/09 08:13:19;;;;;;;7.50;3.23;;;;;;;25.32;26.33;101411.16;5019957;28;20482;-65
2022/05/09 08:15:47;;;;;;;7.03;3.17;;;;;;;26.40;25.05;101399.78;5021294;28;20474;-63
2022/05/09 08:18:14;;;;;;;10.67;3.33;;;;;;;26.82;24.32;101410.34;5013130;28;20481;-68
2022/05/09 08:20:43;;;;;;;4.83;2.80;;;;;;;26.22;25.32;101403.22;5022055;28;20539;-64
2022/05/09 08:23:16;;;;;;;11.93;3.00;;;;;;;26.48;24.78;101401.44;5021293;28;20458;-63
2022/05/09 08:25:44;;;;;;;7.70;3.63;;;;;;;26.40;24.75;101401.69;5021479;28;20533;-63
2022/05/09 08:28:11;;;;;;;5.53;2.60;;;;;;;26.36;24.70;101401.28;5020539;28;20442;-63
2022/05/09 08:30:39;;;;;;;6.77;3.30;;;;;;;26.65;23.66;101408.13;5004698;28;20557;-63
2022/05/09 08:33:07;;;;;;;5.40;3.00;;;;;;;26.56;24.33;101398.47;5021286;28;20469;-63
2022/05/09 08:35:34;;;;;;;7.00;2.70;;;;;;;26.42;25.07;101396.81;5019375;28;20470;-63
2022/05/09 08:38:01;;;;;;;6.50;3.07;;;;;;;27.81;23.22;101410.63;5040382;28;20799;-63
2022/05/09 08:40:36;;;;;;;4.40;2.30;;;;;;;27.13;23.63;101408.69;5041103;28;20502;-64
2022/05/09 08:43:08;;;;;;;4.53;2.50;;;;;;;28.44;22.26;101408.69;5040031;28;20445;-64
2022/05/09 08:45:37;;;;;;;5.50;2.77;;;;;;;28.90;20.73;101408.09;5040096;28;20920;-65
2022/05/09 08:48:23;;;;;;;7.40;3.10;;;;;;;29.13;21.48;101411.09;5040735;28;20450;-65
2022/05/09 08:50:58;;;;;;;9.30;3.00;;;;;;;28.36;22.82;101398.84;5041424;28;20497;-64
2022/05/09 08:53:26;;;;;;;4.23;2.60;;;;;;;26.68;24.17;101391.25;5040528;28;20438;-64
2022/05/09 08:55:56;;;;;;;3.87;2.30;;;;;;;28.81;21.74;101395.69;5021046;28;20475;-64
2022/05/09 08:58:33;;;;;;;3.40;2.37;;;;;;;28.92;21.41;101397.66;5040832;28;20476;-65
2022/05/09 09:01:03;;;;;;;5.50;2.37;;;;;;;28.51;21.06;101396.53;5040650;28;20477;-65
2022/05/09 09:03:32;;;;;;;10.30;2.67;;;;;;;27.34;23.00;101397.34;5040022;28;20468;-65
2022/05/09 09:06:04;;;;;;;5.70;2.50;;;;;;;27.74;22.15;101383.25;5029565;28;20569;-64
2022/05/09 09:08:37;;;;;;;5.93;2.10;;;;;;;27.80;22.53;101386.97;5039646;28;20473;-63
2022/05/09 09:11:11;;;;;;;5.50;2.63;;;;;;;28.88;19.89;101385.44;5040337;28;20497;-64
2022/05/09 09:13:52;;;;;;;5.53;2.33;;;;;;;28.36;20.60;101385.09;5037645;28;20624;-64
2022/05/09 09:16:25;;;;;;;4.93;2.37;;;;;;;27.47;22.08;101381.81;5040552;28;20557;-64
2022/05/09 09:19:38;;;;;;;7.13;2.60;;;;;;;27.81;22.01;101374.91;5038446;28;20507;-64
2022/05/09 09:22:12;;;;;;;4.00;2.00;;;;;;;27.80;21.31;101370.50;5025729;28;20484;-63
2022/05/09 09:24:52;;;;;;;4.33;2.10;;;;;;;28.86;20.46;101379.31;5040778;28;20465;-64
2022/05/09 09:27:32;;;;;;;4.47;2.50;;;;;;;28.24;22.41;101375.94;5040144;28;20486;-64
2022/05/09 09:30:01;;;;;;;3.83;2.20;;;;;;;27.31;23.19;101372.22;5039581;28;20438;-65
2022/05/09 09:32:28;;;;;;;4.67;2.20;;;;;;;28.52;21.32;101378.09;5039408;28;20486;-64
2022/05/09 09:34:59;;;;;;;6.87;2.37;;;;;;;29.45;20.78;101373.09;5034534;28;20460;-64
2022/05/09 09:37:34;;;;;;;6.10;2.30;;;;;;;28.01;22.38;101365.66;5032931;28;20527;-64
2022/05/09 09:40:01;;;;;;;4.50;2.40;;;;;;;27.05;22.77;101372.19;5039853;28;21028;-66
2022/05/09 09:42:29;;;;;;;7.63;2.70;;;;;;;27.15;22.99;101368.09;5038992;28;20481;-64
2022/05/09 09:44:58;;;;;;;8.87;2.80;;;;;;;27.11;23.54;101362.22;5033281;28;20472;-65
2022/05/09 09:47:26;;;;;;;5.53;2.40;;;;;;;27.87;22.12;101359.44;5039421;28;20478;-64
2022/05/09 09:50:13;;;;;;;7.67;1.90;;;;;;;27.85;23.07;101356.91;5040677;28;20457;-63
2022/05/09 09:52:43;;;;;;;4.60;2.43;;;;;;;28.24;22.83;101359.44;5039100;28;20462;-64
2022/05/09 09:55:19;;;;;;;3.93;2.30;;;;;;;27.04;23.69;101350.47;5039362;28;20467;-65
2022/05/09 09:57:48;;;;;;;4.70;2.30;;;;;;;27.76;22.84;101353.63;5025293;28;20453;-63
2022/05/09 10:00:19;;;;;;;6.30;2.73;;;;;;;26.96;24.14;101348.00;5037910;28;20454;-63
2022/05/09 10:02:46;;;;;;;9.23;2.87;;;;;;;27.58;22.97;101348.94;5039076;28;20442;-63
2022/05/09 10:05:15;;;;;;;5.53;2.37;;;;;;;27.09;23.95;101339.66;5019974;28;20473;-63
2022/05/09 10:07:44;;;;;;;5.10;2.57;;;;;;;27.61;23.39;101343.00;5032208;28;20573;-62
2022/05/09 10:10:13;;;;;;;5.17;2.50;;;;;;;27.49;23.34;101347.56;5039599;28;20469;-62
2022/05/09 10:12:41;;;;;;;5.53;2.43;;;;;;;28.12;22.51;101340.97;5036862;28;20506;-64
2022/05/09 10:15:26;;;;;;;6.73;2.43;;;;;;;28.22;21.85;101339.59;5022824;28;21088;-63
2022/05/09 10:17:53;;;;;;;6.03;2.40;;;;;;;28.34;22.89;101349.56;5039064;28;20446;-63
2022/05/09 10:20:34;;;;;;;5.43;2.57;;;;;;;27.48;22.38;101332.16;5038537;28;21007;-63
2022/05/09 10:26:01;;;;;;;5.27;2.30;;;;;;;27.08;23.61;101332.47;5039499;28;20884;-63
2022/05/09 10:28:31;;;;;;;7.50;2.30;;;;;;;27.67;23.51;101318.44;5039431;28;20513;-63
2022/05/09 10:31:03;;;;;;;4.03;2.20;;;;;;;27.01;24.16;101313.34;5037541;28;20857;-63
2022/05/09 10:33:38;;;;;;;5.10;2.40;;;;;;;27.76;23.85;101317.06;5039274;28;20515;-62
2022/05/09 10:36:08;;;;;;;3.10;2.07;;;;;;;27.58;23.51;101309.66;5024839;28;20880;-62
2022/05/09 10:41:05;;;;;;;7.80;3.67;;;;;;;27.16;24.16;101307.50;5123489;27;20596;-63
2022/05/09 10:43:35;;;;;;;4.77;2.20;;;;;;;27.68;24.14;101301.72;5095764;28;20450;-63
2022/05/09 10:46:08;;;;;;;4.50;2.60;;;;;;;27.25;23.74;101297.06;5097028;28;20538;-63
2022/05/09 10:48:41;;;;;;;6.10;2.40;;;;;;;27.66;23.63;101292.88;5096519;28;20490;-64
2022/05/09 10:51:12;;;;;;;4.57;2.13;;;;;;;27.01;25.04;101298.75;5105301;28;20481;-63
2022/05/09 10:53:44;;;;;;;7.77;2.27;;;;;;;26.91;26.28;101293.78;5117412;28;20427;-64
2022/05/09 10:56:17;;;;;;;4.13;2.17;;;;;;;26.75;25.36;101288.84;5111928;27;20518;-62
2022/05/09 10:58:48;;;;;;;5.47;2.57;;;;;;;27.25;25.13;101280.59;5096979;28;20930;-63
2022/05/09 11:01:17;;;;;;;4.00;3.03;;;;;;;27.49;24.06;101289.06;5097453;28;20479;-61
2022/05/09 11:03:45;;;;;;;5.63;2.67;;;;;;;27.43;24.08;101294.38;5096428;28;20447;-61
2022/05/09 11:06:24;;;;;;;3.30;2.30;;;;;;;27.16;24.92;101284.69;5096103;28;20471;-62
2022/05/09 11:09:15;;;;;;;4.63;3.07;;;;;;;26.46;24.75;101285.66;5097361;28;20465;-62
2022/05/09 11:11:56;;;;;;;5.77;2.63;;;;;;;27.83;24.53;101281.25;5083651;28;20551;-63
2022/05/09 11:14:33;;;;;;;5.13;2.90;;;;;;;26.24;25.90;101268.69;5096234;28;20523;-63
2022/05/09 11:17:27;;;;;;;5.23;2.70;;;;;;;27.48;24.95;101279.97;5084865;28;20474;-63
2022/05/09 11:20:05;;;;;;;5.43;3.30;;;;;;;27.71;23.96;101275.72;5070050;28;20496;-63
2022/05/09 11:22:35;;;;;;;5.30;2.40;;;;;;;26.87;24.66;101267.84;5100623;28;20527;-63
2022/05/09 11:25:10;;;;;;;9.57;2.87;;;;;;;27.40;23.63;101269.28;5117464;28;20475;-63
2022/05/09 11:27:50;;;;;;;4.20;2.57;;;;;;;27.02;25.25;101268.34;5116544;28;20462;-63
2022/05/09 11:30:25;;;;;;;5.10;3.00;;;;;;;26.72;25.96;101265.44;5116067;27;20478;-63
2022/05/09 11:33:00;;;;;;;6.50;2.70;;;;;;;26.79;26.60;101262.66;5116429;28;20494;-63
2022/05/09 11:35:30;;;;;;;6.83;2.90;;;;;;;27.94;23.87;101258.53;5111929;27;20490;-66
2022/05/09 11:38:06;;;;;;;5.90;2.67;;;;;;;27.94;24.66;101264.84;5117477;28;21418;-64
2022/05/09 11:40:37;;;;;;;4.70;2.60;;;;;;;27.45;25.37;101254.84;5116322;27;20476;-65
2022/05/09 11:43:30;;;;;;;6.60;2.37;;;;;;;27.63;25.03;101248.53;5095982;28;20816;-66
2022/05/09 11:46:06;;;;;;;4.57;2.30;;;;;;;28.18;24.80;101249.31;5097638;27;20472;-63
2022/05/09 11:48:38;;;;;;;4.90;2.50;;;;;;;26.39;26.63;101233.59;5078898;28;20458;-64
2022/05/09 11:51:13;;;;;;;8.00;2.10;;;;;;;26.57;25.89;101235.56;5089116;28;20479;-63
2022/05/09 11:53:43;;;;;;;4.87;2.50;;;;;;;26.84;26.36;101236.22;5082840;28;21131;-63